Time;durP1;ratioP1;P1;durP2;ratioP2;P2;SDS_P1;SDS_P2;PMS_P1;PMS_P2;Temp;Humidity;BMP_temperature;BMP_pressure;BME280_temperature;BME280_humidity;BME280_pressure;Samples;Min_cycle;Max_cycle;Signal;HPM_P1;HPM_P2
2021/05/21 04:10:17;;;;;;;0.52;0.52;;;13.20;99.90;;;;;;6034933;23;20202;-74
2021/05/21 04:12:44;;;;;;;0.60;0.60;;;13.20;99.90;;;;;;4976635;28;20220;-75
2021/05/21 04:15:13;;;;;;;0.60;0.60;;;13.30;99.90;;;;;;4977127;28;20307;-75
2021/05/21 04:17:40;;;;;;;0.60;0.60;;;13.40;99.90;;;;;;4977165;28;20234;-75
2021/05/21 04:20:09;;;;;;;0.50;0.50;;;13.40;99.90;;;;;;4977153;28;20239;-75
2021/05/21 04:22:37;;;;;;;0.60;0.60;;;13.50;99.90;;;;;;4957464;28;20217;-75
2021/05/21 04:25:05;;;;;;;0.65;0.65;;;13.50;99.90;;;;;;4982875;23;20639;-77
2021/05/21 04:27:33;;;;;;;0.60;0.60;;;13.60;99.90;;;;;;4974252;28;20262;-77
2021/05/21 04:30:00;;;;;;;0.60;0.60;;;13.70;99.90;;;;;;4957166;29;20205;-77
2021/05/21 04:32:28;;;;;;;0.60;0.60;;;13.80;99.90;;;;;;4957171;29;20260;-77
2021/05/21 04:34:56;;;;;;;0.60;0.60;;;13.90;99.90;;;;;;4957139;29;20272;-77
2021/05/21 04:37:23;;;;;;;0.60;0.60;;;13.90;99.90;;;;;;4957069;28;20259;-78
2021/05/21 04:39:51;;;;;;;0.70;0.70;;;14.00;99.90;;;;;;4957000;28;20264;-77
2021/05/21 04:42:39;;;;;;;0.60;0.60;;;14.10;99.90;;;;;;4956983;29;20296;-77
2021/05/21 04:45:07;;;;;;;0.60;0.60;;;14.20;99.90;;;;;;4956788;28;20292;-76
2021/05/21 04:47:35;;;;;;;0.60;0.60;;;14.30;99.90;;;;;;4957256;28;20265;-76
2021/05/21 04:50:04;;;;;;;0.50;0.50;;;14.40;99.90;;;;;;4956722;28;20213;-76
2021/05/21 04:52:31;;;;;;;0.60;0.60;;;14.50;99.90;;;;;;4956576;28;20260;-77
2021/05/21 04:54:59;;;;;;;0.50;0.50;;;14.60;99.90;;;;;;4956684;28;20255;-76
2021/05/21 04:57:26;;;;;;;0.50;0.50;;;14.60;99.90;;;;;;4967109;28;20209;-76
2021/05/21 04:59:55;;;;;;;0.65;0.65;;;14.70;99.90;;;;;;4972821;28;20201;-76
2021/05/21 05:02:22;;;;;;;0.60;0.60;;;14.60;99.90;;;;;;4975356;28;20760;-77
2021/05/21 05:04:50;;;;;;;0.60;0.60;;;14.70;99.90;;;;;;4973232;28;20209;-76
2021/05/21 05:07:18;;;;;;;0.60;0.60;;;14.80;99.90;;;;;;4972080;28;20197;-76
2021/05/21 05:09:45;;;;;;;0.60;0.60;;;14.80;99.90;;;;;;4957232;28;20210;-76
2021/05/21 05:12:12;;;;;;;0.60;0.60;;;14.80;99.90;;;;;;4956333;29;20213;-77
2021/05/21 05:14:40;;;;;;;0.60;0.60;;;15.10;99.90;;;;;;4955550;28;20221;-77
2021/05/21 05:17:08;;;;;;;0.60;0.60;;;14.90;99.90;;;;;;4955623;29;20280;-76
2021/05/21 05:19:36;;;;;;;0.50;0.50;;;15.00;99.90;;;;;;4956398;29;20217;-77
2021/05/21 05:22:03;;;;;;;0.50;0.50;;;15.00;99.90;;;;;;4955429;29;20205;-77
2021/05/21 05:24:33;;;;;;;0.50;0.50;;;15.20;99.90;;;;;;4956187;29;20205;-76
2021/05/21 05:27:01;;;;;;;0.57;0.57;;;15.30;99.90;;;;;;4956337;28;20229;-77
2021/05/21 05:29:30;;;;;;;0.50;0.50;;;15.40;99.90;;;;;;4956508;29;20209;-77
2021/05/21 05:31:57;;;;;;;0.55;0.55;;;15.60;99.90;;;;;;4956002;29;20272;-76
2021/05/21 05:34:25;;;;;;;0.40;0.40;;;15.70;99.90;;;;;;4955854;29;20218;-77
2021/05/21 05:36:54;;;;;;;0.60;0.60;;;15.70;99.90;;;;;;4956204;28;20237;-77
2021/05/21 05:39:21;;;;;;;0.57;0.57;;;15.90;99.90;;;;;;4956138;28;20201;-77
2021/05/21 05:41:50;;;;;;;0.50;0.50;;;16.00;99.90;;;;;;4955939;29;20213;-76
2021/05/21 05:44:18;;;;;;;0.40;0.40;;;16.20;99.90;;;;;;4955647;29;20257;-77
2021/05/21 05:46:45;;;;;;;0.40;0.40;;;16.80;99.90;;;;;;4955816;28;20225;-77
2021/05/21 05:49:12;;;;;;;0.40;0.40;;;16.60;99.10;;;;;;4956251;29;20209;-77
2021/05/21 05:51:41;;;;;;;0.40;0.40;;;16.70;98.90;;;;;;4955818;28;20209;-77
2021/05/21 05:54:08;;;;;;;0.50;0.50;;;16.80;97.90;;;;;;4955583;29;20207;-77
2021/05/21 05:56:35;;;;;;;0.50;0.50;;;16.70;96.80;;;;;;4955412;28;20221;-77
2021/05/21 05:59:03;;;;;;;0.40;0.40;;;16.70;97.40;;;;;;4955636;29;20623;-77
2021/05/21 06:01:31;;;;;;;0.40;0.40;;;16.80;97.50;;;;;;4955297;29;20209;-77
2021/05/21 06:03:58;;;;;;;0.50;0.50;;;16.70;99.90;;;;;;4955568;28;20212;-77
2021/05/21 06:06:26;;;;;;;0.50;0.50;;;16.80;96.20;;;;;;4955309;28;20764;-77
2021/05/21 06:08:56;;;;;;;0.40;0.40;;;16.80;95.40;;;;;;4955593;29;20213;-77
2021/05/21 06:11:24;;;;;;;0.40;0.40;;;16.90;95.60;;;;;;4955205;29;20208;-76
2021/05/21 06:13:52;;;;;;;0.40;0.40;;;16.80;94.90;;;;;;4955546;29;20205;-77
2021/05/21 06:16:19;;;;;;;0.50;0.50;;;16.90;95.20;;;;;;4955198;28;20240;-77
2021/05/21 06:18:48;;;;;;;0.50;0.50;;;17.00;95.20;;;;;;4955473;29;20201;-77
2021/05/21 06:21:15;;;;;;;0.50;0.50;;;17.00;94.50;;;;;;4956122;29;20205;-77
2021/05/21 06:23:44;;;;;;;0.40;0.40;;;17.10;95.20;;;;;;4955109;29;20212;-77
2021/05/21 06:26:17;;;;;;;0.40;0.40;;;17.50;95.60;;;;;;4954188;28;20234;-76
2021/05/21 06:28:45;;;;;;;0.40;0.40;;;17.30;93.90;;;;;;4955102;29;20256;-77
2021/05/21 06:31:13;;;;;;;0.50;0.50;;;17.30;93.80;;;;;;4955344;29;20216;-77
2021/05/21 06:33:41;;;;;;;0.40;0.40;;;17.30;93.60;;;;;;4954813;29;20213;-77
2021/05/21 06:36:08;;;;;;;0.50;0.50;;;17.40;93.70;;;;;;4954743;28;20284;-78
2021/05/21 06:38:36;;;;;;;0.50;0.50;;;17.40;93.40;;;;;;4954742;29;20240;-78
2021/05/21 06:41:03;;;;;;;0.50;0.50;;;17.40;93.20;;;;;;4955084;29;20205;-77
2021/05/21 06:43:32;;;;;;;0.40;0.40;;;17.50;93.20;;;;;;4954885;28;20563;-78
2021/05/21 06:46:01;;;;;;;0.40;0.40;;;17.70;92.90;;;;;;4954538;28;20234;-78
2021/05/21 06:48:30;;;;;;;0.30;0.30;;;17.70;92.20;;;;;;4954860;29;20698;-77
2021/05/21 06:50:58;;;;;;;0.30;0.30;;;17.60;91.80;;;;;;4954532;29;20216;-77
2021/05/21 06:53:26;;;;;;;0.40;0.40;;;17.80;92.20;;;;;;4954721;29;20209;-77
2021/05/21 06:55:54;;;;;;;0.50;0.50;;;17.90;92.20;;;;;;4954626;28;20714;-77
2021/05/21 06:58:24;;;;;;;0.40;0.40;;;17.90;90.90;;;;;;4954585;29;20733;-77
2021/05/21 07:00:54;;;;;;;0.40;0.40;;;17.70;90.40;;;;;;4954850;29;20621;-77
2021/05/21 07:03:25;;;;;;;0.40;0.40;;;17.60;90.90;;;;;;4954347;28;20264;-77
2021/05/21 07:05:52;;;;;;;0.50;0.50;;;17.80;90.40;;;;;;4954500;28;20233;-76
2021/05/21 07:08:20;;;;;;;0.40;0.40;;;18.00;90.60;;;;;;4954726;28;20213;-77
2021/05/21 07:10:47;;;;;;;0.40;0.40;;;18.00;90.30;;;;;;4954746;29;20205;-77
2021/05/21 07:13:16;;;;;;;0.40;0.40;;;17.90;89.60;;;;;;4954234;29;20201;-76
2021/05/21 07:15:44;;;;;;;0.40;0.40;;;18.10;90.40;;;;;;4954347;28;20229;-76
2021/05/21 07:18:12;;;;;;;0.40;0.40;;;18.00;89.10;;;;;;4954175;29;20280;-76
2021/05/21 07:20:41;;;;;;;0.40;0.40;;;17.90;89.10;;;;;;4954895;29;20654;-76
2021/05/21 07:23:09;;;;;;;0.40;0.40;;;18.20;90.10;;;;;;4954144;29;20209;-77
2021/05/21 07:25:36;;;;;;;0.30;0.30;;;18.30;88.00;;;;;;4954136;28;20229;-76
2021/05/21 07:28:04;;;;;;;0.40;0.40;;;18.50;87.70;;;;;;4954280;29;20205;-77
2021/05/21 07:30:32;;;;;;;0.30;0.30;;;18.50;85.90;;;;;;4954279;29;20674;-77
2021/05/21 07:32:59;;;;;;;0.40;0.40;;;18.60;87.00;;;;;;4954075;29;20782;-76
2021/05/21 07:35:30;;;;;;;0.30;0.30;;;18.40;85.40;;;;;;4953849;28;20229;-76
2021/05/21 07:37:57;;;;;;;0.30;0.30;;;18.50;87.30;;;;;;4954091;28;20229;-77
2021/05/21 07:40:24;;;;;;;0.40;0.40;;;18.80;88.00;;;;;;4954271;29;20209;-76
2021/05/21 07:42:52;;;;;;;0.40;0.40;;;18.90;85.00;;;;;;4953787;29;20245;-76
2021/05/21 07:45:20;;;;;;;0.30;0.30;;;18.70;85.70;;;;;;4953397;28;20240;-77
2021/05/21 07:47:47;;;;;;;0.30;0.30;;;18.60;85.40;;;;;;4953966;29;20201;-77
2021/05/21 07:50:15;;;;;;;0.30;0.30;;;18.50;85.50;;;;;;4954163;28;20216;-76
2021/05/21 07:52:43;;;;;;;0.40;0.40;;;18.40;85.30;;;;;;4953650;29;20263;-76
2021/05/21 07:55:12;;;;;;;0.30;0.30;;;18.50;86.00;;;;;;4954060;28;20225;-76
2021/05/21 07:57:40;;;;;;;0.35;0.35;;;18.40;85.50;;;;;;4953650;28;20300;-77
2021/05/21 08:00:09;;;;;;;0.30;0.30;;;18.50;84.80;;;;;;4954160;29;20201;-76
2021/05/21 08:02:37;;;;;;;0.30;0.30;;;18.60;83.90;;;;;;4953746;28;20206;-76
2021/05/21 08:05:06;;;;;;;0.30;0.30;;;18.60;84.30;;;;;;4953720;28;20570;-76
2021/05/21 08:07:33;;;;;;;0.30;0.30;;;18.70;85.10;;;;;;4953526;28;20209;-76
2021/05/21 08:10:04;;;;;;;0.30;0.30;;;18.70;83.60;;;;;;4953823;29;20256;-76
2021/05/21 08:12:32;;;;;;;0.40;0.40;;;18.60;83.50;;;;;;4953780;29;20624;-77
2021/05/21 08:14:59;;;;;;;0.40;0.40;;;18.70;84.80;;;;;;4953708;28;20360;-77
2021/05/21 08:17:27;;;;;;;0.30;0.30;;;18.80;82.40;;;;;;4953395;29;20621;-76
2021/05/21 08:20:08;;;;;;;0.32;0.32;;;18.60;82.20;;;;;;4954345;29;20190;-77
2021/05/21 08:22:36;;;;;;;0.30;0.30;;;18.40;83.00;;;;;;4953494;28;20205;-77
2021/05/21 08:25:06;;;;;;;0.45;0.45;;;18.40;82.80;;;;;;4953198;28;20261;-77
2021/05/21 08:27:33;;;;;;;0.32;0.32;;;18.50;82.30;;;;;;4953632;29;20631;-77
2021/05/21 08:30:02;;;;;;;0.40;0.40;;;18.60;81.80;;;;;;4953608;29;20610;-76
2021/05/21 08:32:29;;;;;;;0.30;0.30;;;18.80;80.00;;;;;;4953438;29;20212;-76
2021/05/21 08:34:56;;;;;;;0.30;0.30;;;18.90;94.40;;;;;;4953478;28;20201;-76
2021/05/21 08:37:24;;;;;;;0.40;0.40;;;18.90;79.20;;;;;;4953484;29;20233;-76
2021/05/21 08:39:54;;;;;;;0.30;0.30;;;19.30;79.70;;;;;;4953554;29;20560;-77
2021/05/21 08:42:23;;;;;;;0.40;0.40;;;19.20;78.40;;;;;;4953637;29;20261;-76
2021/05/21 08:44:54;;;;;;;0.30;0.30;;;19.50;92.80;;;;;;4953458;28;20211;-77
2021/05/21 08:47:22;;;;;;;0.30;0.30;;;19.50;77.50;;;;;;4953566;29;20205;-77
2021/05/21 08:49:50;;;;;;;0.30;0.30;;;19.70;78.60;;;;;;4956569;28;20212;-77
2021/05/21 08:52:18;;;;;;;0.40;0.40;;;20.10;93.80;;;;;;4956868;29;20206;-77
2021/05/21 08:54:46;;;;;;;0.30;0.30;;;20.00;86.80;;;;;;4957100;28;20256;-77
2021/05/21 08:57:18;;;;;;;0.30;0.30;;;19.90;70.80;;;;;;4956991;29;20236;-77
2021/05/21 08:59:47;;;;;;;0.30;0.30;;;20.00;71.20;;;;;;4956985;29;20209;-76
2021/05/21 09:02:17;;;;;;;0.40;0.40;;;19.90;75.70;;;;;;4956271;29;20261;-77
2021/05/21 09:04:49;;;;;;;0.30;0.30;;;20.10;89.40;;;;;;4956761;28;20202;-76
2021/05/21 09:07:24;;;;;;;0.40;0.40;;;20.00;74.00;;;;;;4956835;29;20212;-76
2021/05/21 09:09:53;;;;;;;0.30;0.30;;;20.00;73.40;;;;;;4956975;29;20205;-77
2021/05/21 09:12:22;;;;;;;0.30;0.30;;;20.00;71.90;;;;;;4956463;28;20213;-77
2021/05/21 09:15:05;;;;;;;0.40;0.40;;;19.50;88.50;;;;;;4956161;28;20205;-77
2021/05/21 09:17:33;;;;;;;0.40;0.40;;;19.60;73.00;;;;;;4956823;29;20272;-76
2021/05/21 09:20:01;;;;;;;0.30;0.30;;;19.70;72.40;;;;;;4956528;29;20215;-77
2021/05/21 09:22:58;;;;;;;0.30;0.30;;;19.60;72.80;;;;;;4956291;29;20209;-76
2021/05/21 09:25:37;;;;;;;0.40;0.40;;;19.80;73.20;;;;;;4956056;28;20232;-76
2021/05/21 09:28:05;;;;;;;0.30;0.30;;;19.80;72.90;;;;;;4956367;29;20608;-77
2021/05/21 09:30:33;;;;;;;0.30;0.30;;;20.00;73.90;;;;;;4956457;29;20277;-76
2021/05/21 09:33:05;;;;;;;0.30;0.30;;;20.10;74.00;;;;;;4956215;29;20554;-76
2021/05/21 09:35:33;;;;;;;0.30;0.30;;;20.00;73.50;;;;;;4955688;28;20225;-77
2021/05/21 09:38:00;;;;;;;0.40;0.40;;;20.30;71.90;;;;;;4956499;29;20260;-77
2021/05/21 09:40:28;;;;;;;0.30;0.30;;;20.30;72.20;;;;;;4956295;29;20674;-77
2021/05/21 09:43:00;;;;;;;0.30;0.30;;;20.60;77.30;;;;;;4956123;29;20201;-77
2021/05/21 09:45:30;;;;;;;0.30;0.30;;;20.70;72.30;;;;;;4955506;28;20229;-77
2021/05/21 09:48:00;;;;;;;0.40;0.40;;;20.80;70.90;;;;;;4956034;28;20205;-77
2021/05/21 09:50:37;;;;;;;0.30;0.30;;;20.90;72.30;;;;;;4956156;29;20737;-76
2021/05/21 09:53:07;;;;;;;0.30;0.30;;;21.20;71.30;;;;;;4956019;28;20185;-77
2021/05/21 09:55:38;;;;;;;0.30;0.30;;;20.80;71.60;;;;;;4955798;28;20296;-76
2021/05/21 09:58:06;;;;;;;0.30;0.30;;;20.80;72.50;;;;;;4955608;29;20221;-77
2021/05/21 10:00:34;;;;;;;0.30;0.30;;;21.20;73.80;;;;;;4954888;28;20205;-76
2021/05/21 10:03:03;;;;;;;0.40;0.40;;;21.00;71.70;;;;;;4955732;29;20552;-77
2021/05/21 10:05:51;;;;;;;0.30;0.30;;;20.70;71.60;;;;;;4955667;28;20229;-77
2021/05/21 10:08:19;;;;;;;0.30;0.30;;;21.00;73.00;;;;;;4955701;29;20201;-77
2021/05/21 10:10:47;;;;;;;0.20;0.20;;;21.10;70.30;;;;;;4955904;29;20589;-77
2021/05/21 10:13:14;;;;;;;0.30;0.30;;;21.10;69.40;;;;;;4955327;29;20213;-77
2021/05/21 10:15:42;;;;;;;0.30;0.30;;;21.10;68.70;;;;;;4955533;28;20241;-77
2021/05/21 10:18:13;;;;;;;0.30;0.30;;;21.10;65.70;;;;;;4955713;28;20226;-77
2021/05/21 10:20:43;;;;;;;0.30;0.30;;;21.20;68.00;;;;;;4955424;29;20220;-76
2021/05/21 10:23:16;;;;;;;0.30;0.30;;;21.30;70.80;;;;;;4955310;29;20207;-77
2021/05/21 10:25:45;;;;;;;0.30;0.30;;;21.40;71.90;;;;;;4954872;28;20237;-77
2021/05/21 10:28:15;;;;;;;0.30;0.30;;;21.50;72.40;;;;;;4963981;28;20662;-78
2021/05/21 10:30:44;;;;;;;0.30;0.30;;;21.20;71.70;;;;;;4968899;28;20207;-78
2021/05/21 10:33:20;;;;;;;0.40;0.40;;;21.10;71.10;;;;;;4982530;28;20205;-78
2021/05/21 10:35:47;;;;;;;0.30;0.30;;;21.40;71.40;;;;;;4979752;28;20224;-79
2021/05/21 10:38:20;;;;;;;0.35;0.35;;;21.30;71.70;;;;;;4977275;28;20220;-78
2021/05/21 10:41:11;;;;;;;0.40;0.40;;;21.40;71.60;;;;;;4977828;28;20704;-78
2021/05/21 10:43:47;;;;;;;0.20;0.20;;;20.90;71.70;;;;;;4977347;28;20204;-78
2021/05/21 10:46:15;;;;;;;0.30;0.30;;;21.00;72.00;;;;;;4976926;28;20298;-76
2021/05/21 10:48:55;;;;;;;0.20;0.20;;;21.30;72.00;;;;;;4977733;28;20829;-77
2021/05/21 10:51:24;;;;;;;0.20;0.20;;;21.50;72.30;;;;;;4978888;28;20223;-75
2021/05/21 10:54:06;;;;;;;0.30;0.30;;;;;;;;;;4978088;28;20628;-78
2021/05/21 10:56:44;;;;;;;0.30;0.30;;;21.60;69.90;;;;;;4978374;28;20228;-77
2021/05/21 10:59:11;;;;;;;0.30;0.30;;;21.80;69.70;;;;;;4977894;28;20228;-78
2021/05/21 11:01:44;;;;;;;0.20;0.20;;;21.60;65.00;;;;;;4978408;28;20280;-78
2021/05/21 11:04:31;;;;;;;0.32;0.32;;;21.50;64.80;;;;;;4979530;28;20630;-78
2021/05/21 11:07:00;;;;;;;0.22;0.22;;;21.60;65.40;;;;;;4978056;28;20645;-78
2021/05/21 11:09:30;;;;;;;0.30;0.30;;;21.70;66.60;;;;;;4976845;28;20624;-78
2021/05/21 11:12:05;;;;;;;0.20;0.20;;;21.80;63.20;;;;;;4978611;28;20624;-77
2021/05/21 11:14:41;;;;;;;0.30;0.30;;;21.70;61.80;;;;;;4979032;28;20211;-77
2021/05/21 11:17:23;;;;;;;0.20;0.20;;;21.60;63.30;;;;;;4978516;28;20669;-78
2021/05/21 11:19:54;;;;;;;0.30;0.30;;;21.20;63.60;;;;;;4977361;28;20224;-78
2021/05/21 11:22:35;;;;;;;0.38;0.38;;;21.00;63.10;;;;;;4977509;28;20201;-77
2021/05/21 11:25:06;;;;;;;0.30;0.30;;;21.00;63.70;;;;;;4978142;28;20270;-78
2021/05/21 11:27:35;;;;;;;0.20;0.20;;;21.10;63.80;;;;;;4980169;28;20200;-77
2021/05/21 11:30:07;;;;;;;0.30;0.30;;;20.90;64.10;;;;;;4980462;28;20228;-76
2021/05/21 11:32:37;;;;;;;0.30;0.30;;;21.10;64.80;;;;;;4985628;28;20188;-76
2021/05/21 11:35:07;;;;;;;0.40;0.40;;;21.10;61.80;;;;;;4986618;28;20279;-77
2021/05/21 11:37:35;;;;;;;0.30;0.30;;;21.00;63.30;;;;;;4975243;28;20263;-78
2021/05/21 11:40:06;;;;;;;0.30;0.30;;;21.10;62.80;;;;;;4974807;28;20212;-77
2021/05/21 11:42:35;;;;;;;0.30;0.30;;;21.00;62.00;;;;;;4974453;28;20243;-78
2021/05/21 11:45:06;;;;;;;0.30;0.30;;;21.20;63.10;;;;;;4974408;28;20231;-76
2021/05/21 11:47:36;;;;;;;0.30;0.30;;;20.90;62.20;;;;;;4974882;28;20212;-78
2021/05/21 11:50:07;;;;;;;0.30;0.30;;;20.70;61.70;;;;;;4975122;28;20657;-76
2021/05/21 11:52:35;;;;;;;0.30;0.30;;;20.70;62.40;;;;;;4974558;28;20556;-77
2021/05/21 11:55:03;;;;;;;0.30;0.30;;;20.60;63.70;;;;;;4974228;28;20283;-77
2021/05/21 11:57:31;;;;;;;0.30;0.30;;;20.60;64.40;;;;;;4974259;28;20580;-77
2021/05/21 11:59:59;;;;;;;0.38;0.38;;;20.80;65.20;;;;;;4974475;28;20296;-77
2021/05/21 12:02:27;;;;;;;0.30;0.30;;;21.00;64.70;;;;;;4975052;28;20208;-78
2021/05/21 12:04:54;;;;;;;0.30;0.30;;;20.80;79.60;;;;;;4974947;28;20208;-75
2021/05/21 12:07:24;;;;;;;0.30;0.30;;;20.70;64.00;;;;;;4974408;28;20275;-77
2021/05/21 12:09:55;;;;;;;0.40;0.40;;;20.60;64.30;;;;;;4974405;28;20208;-75
2021/05/21 12:12:23;;;;;;;0.30;0.30;;;20.90;65.30;;;;;;4975219;28;20216;-78
2021/05/21 12:14:51;;;;;;;0.30;0.30;;;21.20;81.40;;;;;;4975226;28;20205;-77
2021/05/21 12:17:18;;;;;;;0.30;0.30;;;21.20;65.50;;;;;;4974795;28;20255;-78
2021/05/21 12:19:46;;;;;;;0.30;0.30;;;21.40;66.00;;;;;;4974811;28;20224;-77
2021/05/21 12:22:13;;;;;;;0.20;0.20;;;21.70;67.00;;;;;;4974601;28;20200;-76
2021/05/21 12:24:42;;;;;;;0.20;0.20;;;21.80;81.80;;;;;;4976995;28;20213;-75
2021/05/21 12:27:11;;;;;;;0.20;0.20;;;22.00;65.10;;;;;;4978185;28;20579;-77
2021/05/21 12:29:39;;;;;;;0.20;0.20;;;22.10;65.20;;;;;;4978057;28;20609;-76
2021/05/21 12:32:08;;;;;;;0.20;0.20;;;22.10;65.00;;;;;;4977844;28;20205;-77
2021/05/21 12:34:35;;;;;;;0.30;0.30;;;21.80;65.40;;;;;;4978279;28;20204;-77
2021/05/21 12:37:04;;;;;;;0.20;0.20;;;21.80;67.20;;;;;;4977383;28;20244;-78
2021/05/21 12:39:34;;;;;;;0.32;0.32;;;21.60;67.60;;;;;;4979777;28;20225;-76
2021/05/21 12:42:04;;;;;;;0.20;0.20;;;21.50;65.60;;;;;;4989819;28;20205;-74
2021/05/21 12:44:33;;;;;;;0.20;0.20;;;21.50;67.30;;;;;;4978892;28;20263;-75
2021/05/21 12:47:03;;;;;;;0.20;0.20;;;21.70;66.20;;;;;;4978301;28;20228;-75
2021/05/21 12:49:34;;;;;;;0.30;0.30;;;21.50;66.90;;;;;;4977927;28;20197;-77
2021/05/21 12:52:04;;;;;;;0.25;0.25;;;21.50;67.20;;;;;;4977848;28;20200;-77
2021/05/21 12:54:33;;;;;;;0.30;0.30;;;21.40;66.00;;;;;;4977652;28;20208;-76
2021/05/21 12:57:03;;;;;;;0.20;0.20;;;21.20;67.90;;;;;;4978197;28;20271;-77
2021/05/21 12:59:39;;;;;;;0.20;0.20;;;21.40;68.60;;;;;;4977358;28;20789;-77
2021/05/21 13:02:11;;;;;;;0.30;0.30;;;21.40;68.50;;;;;;4977981;28;20200;-77
2021/05/21 13:04:38;;;;;;;0.20;0.20;;;21.40;69.10;;;;;;4977761;28;20216;-78
2021/05/21 13:07:06;;;;;;;0.30;0.30;;;21.60;70.40;;;;;;4967713;28;20197;-76
2021/05/21 13:09:35;;;;;;;0.20;0.20;;;21.60;68.60;;;;;;4967738;28;20613;-78
2021/05/21 13:12:04;;;;;;;0.30;0.30;;;21.60;68.50;;;;;;4978148;28;20208;-77
2021/05/21 13:14:33;;;;;;;0.20;0.20;;;21.90;69.40;;;;;;4977463;28;20223;-77
2021/05/21 13:17:06;;;;;;;0.20;0.20;;;21.70;67.00;;;;;;4970122;28;20259;-78
2021/05/21 13:19:36;;;;;;;0.20;0.20;;;21.80;66.30;;;;;;4967244;28;20890;-78
2021/05/21 13:22:14;;;;;;;0.20;0.20;;;21.80;66.50;;;;;;4976258;28;20208;-78
2021/05/21 13:24:44;;;;;;;0.20;0.20;;;21.50;83.70;;;;;;4977895;28;20264;-74
2021/05/21 13:27:13;;;;;;;0.30;0.30;;;21.70;65.60;;;;;;4978806;28;20243;-77
2021/05/21 13:29:41;;;;;;;0.30;0.30;;;21.80;64.50;;;;;;4979267;28;20197;-75
2021/05/21 13:32:08;;;;;;;0.20;0.20;;;22.00;64.60;;;;;;4978375;28;20271;-76
2021/05/21 13:34:36;;;;;;;0.20;0.20;;;22.10;64.40;;;;;;4970854;28;20203;-78
2021/05/21 13:37:03;;;;;;;0.20;0.20;;;21.90;61.90;;;;;;4958318;28;20222;-77
2021/05/21 13:39:31;;;;;;;0.20;0.20;;;21.70;62.20;;;;;;4956696;29;20228;-75
2021/05/21 13:41:58;;;;;;;0.20;0.20;;;21.70;61.70;;;;;;4956437;29;20622;-75
2021/05/21 13:44:26;;;;;;;0.20;0.20;;;21.90;62.40;;;;;;4957256;29;20201;-76
2021/05/21 13:46:54;;;;;;;0.30;0.30;;;22.00;61.90;;;;;;4956793;28;20710;-76
2021/05/21 13:49:24;;;;;;;0.30;0.30;;;22.00;58.70;;;;;;4956866;29;20624;-76
2021/05/21 13:51:52;;;;;;;0.30;0.30;;;22.10;59.50;;;;;;4956972;29;20205;-77
2021/05/21 13:54:19;;;;;;;0.30;0.30;;;22.10;58.00;;;;;;4957022;29;20243;-75
2021/05/21 13:56:50;;;;;;;0.20;0.20;;;22.10;56.60;;;;;;4956566;28;20233;-76
2021/05/21 13:59:18;;;;;;;0.20;0.20;;;22.00;57.80;;;;;;4958174;28;20606;-76
2021/05/21 14:01:46;;;;;;;0.30;0.30;;;22.10;58.10;;;;;;4957467;29;20356;-77
2021/05/21 14:04:14;;;;;;;0.30;0.30;;;22.00;58.20;;;;;;4957238;29;20209;-76
2021/05/21 14:06:42;;;;;;;0.30;0.30;;;;;;;;;;4974668;28;20279;-76
2021/05/21 14:09:10;;;;;;;0.25;0.25;;;21.70;60.70;;;;;;4975764;28;20251;-74
2021/05/21 14:11:39;;;;;;;0.30;0.30;;;21.80;60.80;;;;;;4969047;28;20565;-77
2021/05/21 14:14:07;;;;;;;0.30;0.30;;;21.80;58.40;;;;;;4976303;28;20255;-75
2021/05/21 14:16:35;;;;;;;0.20;0.20;;;21.80;59.10;;;;;;4974727;28;20220;-75
2021/05/21 14:19:03;;;;;;;0.20;0.20;;;22.00;58.90;;;;;;4974650;28;20646;-75
2021/05/21 14:21:31;;;;;;;0.20;0.20;;;21.90;59.80;;;;;;4975094;28;20300;-77
2021/05/21 14:24:01;;;;;;;0.30;0.30;;;21.70;59.90;;;;;;4969206;28;20201;-75
2021/05/21 14:26:32;;;;;;;0.32;0.32;;;21.40;59.80;;;;;;4960882;28;20295;-75
2021/05/21 14:29:06;;;;;;;0.30;0.30;;;21.50;60.60;;;;;;4964936;28;20201;-76
2021/05/21 14:31:34;;;;;;;0.20;0.20;;;21.30;60.20;;;;;;4962453;28;20235;-75
2021/05/21 14:34:05;;;;;;;0.20;0.20;;;21.30;61.90;;;;;;4964940;28;20264;-75
2021/05/21 14:36:32;;;;;;;0.30;0.30;;;21.30;61.20;;;;;;4963518;28;20275;-73
2021/05/21 14:39:00;;;;;;;0.30;0.30;;;21.90;63.00;;;;;;4963933;28;20264;-74
2021/05/21 14:41:27;;;;;;;0.20;0.20;;;21.00;62.30;;;;;;4971153;28;20560;-74
2021/05/21 14:43:55;;;;;;;0.30;0.30;;;20.90;62.10;;;;;;4964832;28;20219;-73
2021/05/21 14:46:22;;;;;;;0.30;0.30;;;20.80;61.60;;;;;;4960648;28;20619;-73
2021/05/21 14:48:50;;;;;;;0.30;0.30;;;20.90;62.80;;;;;;4967868;28;20201;-74
2021/05/21 14:51:26;;;;;;;0.30;0.30;;;21.10;62.80;;;;;;4963309;28;20205;-74
2021/05/21 14:53:54;;;;;;;0.30;0.30;;;21.10;61.80;;;;;;4955179;28;20197;-74
2021/05/21 14:56:22;;;;;;;0.30;0.30;;;21.10;61.50;;;;;;4964808;28;20629;-73
2021/05/21 14:58:51;;;;;;;0.30;0.30;;;21.10;62.30;;;;;;4962563;28;20221;-74
2021/05/21 15:01:24;;;;;;;0.28;0.28;;;21.30;61.30;;;;;;4965466;28;20200;-73
2021/05/21 15:03:52;;;;;;;0.30;0.30;;;21.40;60.50;;;;;;4962619;28;20584;-74
2021/05/21 15:06:21;;;;;;;0.30;0.30;;;21.20;61.00;;;;;;4966006;28;20244;-74
2021/05/21 15:08:50;;;;;;;0.20;0.20;;;21.10;61.00;;;;;;4966271;28;20197;-74
2021/05/21 15:11:19;;;;;;;0.30;0.30;;;21.20;60.80;;;;;;4961469;28;20210;-74
2021/05/21 15:13:47;;;;;;;0.20;0.20;;;21.00;61.20;;;;;;4965231;28;20202;-74
2021/05/21 15:16:21;;;;;;;0.30;0.30;;;21.00;61.90;;;;;;4965529;28;20213;-75
2021/05/21 15:21:44;;;;;;;0.30;0.30;;;21.20;61.80;;;;;;4954860;28;20697;-76
2021/05/21 15:24:24;;;;;;;0.25;0.25;;;21.00;61.90;;;;;;4963513;28;20203;-75
2021/05/21 15:26:52;;;;;;;0.20;0.20;;;21.10;62.90;;;;;;4973348;28;20788;-74
2021/05/21 15:29:21;;;;;;;0.30;0.30;;;21.40;62.40;;;;;;4975893;28;20205;-74
2021/05/21 15:31:49;;;;;;;0.30;0.30;;;21.30;61.30;;;;;;4976454;28;20252;-75
2021/05/21 15:34:19;;;;;;;0.30;0.30;;;21.10;62.80;;;;;;4975021;28;20212;-74
2021/05/21 15:36:47;;;;;;;0.20;0.20;;;20.90;61.50;;;;;;4973521;28;20229;-74
2021/05/21 15:39:15;;;;;;;0.30;0.30;;;20.70;62.10;;;;;;4965080;28;20652;-74
2021/05/21 15:41:49;;;;;;;0.30;0.30;;;20.70;62.30;;;;;;4953116;28;20260;-74
2021/05/21 15:47:03;;;;;;;0.30;0.30;;;20.60;62.60;;;;;;4956641;28;20217;-75
2021/05/21 15:49:40;;;;;;;0.38;0.38;;;20.60;62.70;;;;;;4965042;28;20233;-74
2021/05/21 15:52:14;;;;;;;0.30;0.30;;;20.60;62.30;;;;;;4965113;28;20229;-74
2021/05/21 15:54:46;;;;;;;0.30;0.30;;;20.60;62.30;;;;;;4965693;28;20224;-75
2021/05/21 15:57:31;;;;;;;0.30;0.30;;;20.50;62.90;;;;;;4964436;28;20547;-74
2021/05/21 15:59:59;;;;;;;0.30;0.30;;;20.30;63.50;;;;;;4960413;28;20294;-74
2021/05/21 16:02:27;;;;;;;0.30;0.30;;;20.20;63.60;;;;;;4963870;28;20203;-74
2021/05/21 16:04:55;;;;;;;0.30;0.30;;;20.00;78.80;;;;;;4959380;28;20197;-75
2021/05/21 16:07:22;;;;;;;0.30;0.30;;;20.00;63.50;;;;;;4961019;28;20227;-75
2021/05/21 16:09:54;;;;;;;0.40;0.40;;;19.90;64.80;;;;;;4962952;28;20220;-74
2021/05/21 16:12:22;;;;;;;0.40;0.40;;;20.00;63.70;;;;;;4964029;28;20197;-75
2021/05/21 16:14:50;;;;;;;0.30;0.30;;;20.20;77.90;;;;;;4960800;28;20621;-74
2021/05/21 16:17:18;;;;;;;0.40;0.40;;;20.30;63.60;;;;;;4966418;28;20200;-73
2021/05/21 16:19:46;;;;;;;0.30;0.30;;;20.30;64.30;;;;;;4972427;28;20236;-73
2021/05/21 16:22:14;;;;;;;0.30;0.30;;;20.20;64.30;;;;;;4972571;28;20223;-73
2021/05/21 16:24:42;;;;;;;0.30;0.30;;;20.20;69.40;;;;;;4972528;28;20209;-72
2021/05/21 16:27:10;;;;;;;0.40;0.40;;;20.10;64.60;;;;;;4972501;28;20258;-72
2021/05/21 16:29:39;;;;;;;0.30;0.30;;;20.20;64.60;;;;;;4972618;28;20204;-72
2021/05/21 16:32:08;;;;;;;0.30;0.30;;;20.20;64.30;;;;;;4963848;28;20881;-72
2021/05/21 16:34:35;;;;;;;0.30;0.30;;;20.20;63.60;;;;;;4967369;28;20220;-72
2021/05/21 16:37:04;;;;;;;0.30;0.30;;;20.20;62.60;;;;;;4960410;28;20269;-75
2021/05/21 16:39:31;;;;;;;0.30;0.30;;;20.10;63.30;;;;;;4964550;28;20229;-74
2021/05/21 16:41:58;;;;;;;0.40;0.40;;;20.10;63.50;;;;;;4965558;28;20209;-74
2021/05/21 16:47:10;;;;;;;0.40;0.40;;;19.80;62.30;;;;;;5399504;23;20466;-75
2021/05/21 16:49:37;;;;;;;0.40;0.40;;;19.80;63.00;;;;;;4938642;29;20269;-76
2021/05/21 16:52:06;;;;;;;0.30;0.30;;;19.80;63.30;;;;;;4933742;29;20614;-74
2021/05/21 16:54:34;;;;;;;0.30;0.30;;;19.90;62.70;;;;;;4933110;29;20217;-74
2021/05/21 16:57:01;;;;;;;0.40;0.40;;;19.80;62.90;;;;;;4941782;29;20229;-76
2021/05/21 16:59:29;;;;;;;0.50;0.50;;;20.00;63.20;;;;;;4949034;29;20217;-74
2021/05/21 17:01:57;;;;;;;0.30;0.30;;;20.60;62.00;;;;;;4951813;29;20606;-75
2021/05/21 17:04:26;;;;;;;0.30;0.30;;;21.00;61.30;;;;;;4951912;29;20198;-76
2021/05/21 17:06:53;;;;;;;0.70;0.70;;;21.10;60.70;;;;;;4951406;28;20268;-75
2021/05/21 17:09:23;;;;;;;0.70;0.70;;;21.40;60.00;;;;;;4952310;28;20201;-75
2021/05/21 17:11:53;;;;;;;0.88;0.88;;;21.70;59.00;;;;;;4953804;29;20787;-75
2021/05/21 17:14:24;;;;;;;0.80;0.80;;;22.10;58.10;;;;;;4955882;29;20903;-75
2021/05/21 17:20:00;;;;;;;0.30;0.30;;;22.40;58.00;;;;;;4956149;29;20225;-75